sensor_id;sensor_type;location;lat;lon;timestamp;pressure;altitude;pressure_sealevel;temperature;humidity
31044;BME280;17710;52.520;13.352;2023-10-08T00:01:18;101474.72;;;17.34;75.74
31044;BME280;17710;52.520;13.352;2023-10-08T00:03:47;101489.31;;;17.27;76.16
31044;BME280;17710;52.520;13.352;2023-10-08T00:06:16;101496.56;;;17.42;76.78
31044;BME280;17710;52.520;13.352;2023-10-08T00:08:44;101500.72;;;17.30;76.71
31044;BME280;17710;52.520;13.352;2023-10-08T00:11:12;101488.06;;;17.51;75.93
31044;BME280;17710;52.520;13.352;2023-10-08T00:13:41;101476.38;;;17.36;75.89
31044;BME280;17710;52.520;13.352;2023-10-08T00:16:12;101479.91;;;17.37;75.55
31044;BME280;17710;52.520;13.352;2023-10-08T00:18:43;101489.66;;;17.38;76.59
31044;BME280;17710;52.520;13.352;2023-10-08T00:21:14;101483.28;;;17.40;75.45
31044;BME280;17710;52.520;13.352;2023-10-08T00:23:44;101490.75;;;17.17;76.36
31044;BME280;17710;52.520;13.352;2023-10-08T00:26:15;101494.03;;;17.56;75.00
31044;BME280;17710;52.520;13.352;2023-10-08T00:28:44;101497.88;;;17.68;74.80
31044;BME280;17710;52.520;13.352;2023-10-08T00:31:14;101494.34;;;17.50;75.60
31044;BME280;17710;52.520;13.352;2023-10-08T00:33:42;101492.75;;;17.80;75.05
31044;BME280;17710;52.520;13.352;2023-10-08T00:36:09;101492.91;;;17.60;74.66
31044;BME280;17710;52.520;13.352;2023-10-08T00:38:47;101506.63;;;17.71;74.55
31044;BME280;17710;52.520;13.352;2023-10-08T00:41:16;101513.53;;;17.58;74.77
31044;BME280;17710;52.520;13.352;2023-10-08T00:43:46;101509.06;;;17.24;75.33
31044;BME280;17710;52.520;13.352;2023-10-08T00:46:15;101521.53;;;17.41;75.66
31044;BME280;17710;52.520;13.352;2023-10-08T00:48:44;101523.28;;;17.42;74.98
31044;BME280;17710;52.520;13.352;2023-10-08T00:51:11;101516.28;;;17.57;74.14
31044;BME280;17710;52.520;13.352;2023-10-08T00:53:54;101512.03;;;17.70;73.50
31044;BME280;17710;52.520;13.352;2023-10-08T00:56:23;101524.97;;;17.60;72.99
31044;BME280;17710;52.520;13.352;2023-10-08T00:58:51;101524.53;;;17.69;73.25
31044;BME280;17710;52.520;13.352;2023-10-08T01:01:20;101527.53;;;17.63;73.06
31044;BME280;17710;52.520;13.352;2023-10-08T01:03:47;101534.50;;;17.48;74.11
31044;BME280;17710;52.520;13.352;2023-10-08T01:06:16;101527.97;;;17.54;74.94
31044;BME280;17710;52.520;13.352;2023-10-08T01:08:46;101521.22;;;17.47;74.10
31044;BME280;17710;52.520;13.352;2023-10-08T01:11:19;101514.47;;;17.23;75.24
31044;BME280;17710;52.520;13.352;2023-10-08T01:13:47;101519.00;;;17.21;76.54
31044;BME280;17710;52.520;13.352;2023-10-08T01:16:14;101517.94;;;17.25;75.60
31044;BME280;17710;52.520;13.352;2023-10-08T01:18:44;101531.44;;;17.04;75.50
31044;BME280;17710;52.520;13.352;2023-10-08T01:21:17;101538.69;;;17.20;75.76
31044;BME280;17710;52.520;13.352;2023-10-08T01:24:00;101552.91;;;17.37;75.64
31044;BME280;17710;52.520;13.352;2023-10-08T01:26:28;101541.91;;;17.61;73.61
31044;BME280;17710;52.520;13.352;2023-10-08T01:28:57;101541.97;;;17.25;75.54
31044;BME280;17710;52.520;13.352;2023-10-08T01:31:27;101552.19;;;17.34;74.75
31044;BME280;17710;52.520;13.352;2023-10-08T01:33:54;101547.06;;;17.12;75.45
31044;BME280;17710;52.520;13.352;2023-10-08T01:36:22;101552.56;;;16.73;76.41
31044;BME280;17710;52.520;13.352;2023-10-08T01:38:48;101554.25;;;16.74;76.74
31044;BME280;17710;52.520;13.352;2023-10-08T01:41:16;101555.00;;;16.59;77.60
31044;BME280;17710;52.520;13.352;2023-10-08T01:43:55;101560.75;;;16.87;76.52
31044;BME280;17710;52.520;13.352;2023-10-08T01:46:22;101569.81;;;16.66;76.91
31044;BME280;17710;52.520;13.352;2023-10-08T01:48:48;101577.94;;;16.63;77.25
31044;BME280;17710;52.520;13.352;2023-10-08T01:51:18;101567.59;;;16.74;77.04
31044;BME280;17710;52.520;13.352;2023-10-08T01:53:50;101573.97;;;16.90;76.25
31044;BME280;17710;52.520;13.352;2023-10-08T01:56:17;101586.13;;;16.96;76.26
31044;BME280;17710;52.520;13.352;2023-10-08T01:58:44;101585.19;;;16.97;76.43
31044;BME280;17710;52.520;13.352;2023-10-08T02:01:11;101599.69;;;17.10;76.54
31044;BME280;17710;52.520;13.352;2023-10-08T02:03:39;101602.09;;;17.50;75.05
31044;BME280;17710;52.520;13.352;2023-10-08T02:06:07;101602.97;;;17.51;74.71
31044;BME280;17710;52.520;13.352;2023-10-08T02:08:34;101603.34;;;17.26;75.01
31044;BME280;17710;52.520;13.352;2023-10-08T02:11:01;101604.19;;;17.27;75.72
31044;BME280;17710;52.520;13.352;2023-10-08T02:13:29;101586.75;;;17.20;75.36
31044;BME280;17710;52.520;13.352;2023-10-08T02:15:56;101604.59;;;17.36;74.54
31044;BME280;17710;52.520;13.352;2023-10-08T02:18:23;101596.06;;;17.11;75.42
31044;BME280;17710;52.520;13.352;2023-10-08T02:20:50;101629.63;;;17.17;75.90
31044;BME280;17710;52.520;13.352;2023-10-08T02:23:18;101613.28;;;17.23;75.55
31044;BME280;17710;52.520;13.352;2023-10-08T02:25:44;101623.22;;;16.83;76.76
31044;BME280;17710;52.520;13.352;2023-10-08T02:28:10;101628.06;;;17.12;76.81
31044;BME280;17710;52.520;13.352;2023-10-08T02:30:42;101647.56;;;17.32;75.27
31044;BME280;17710;52.520;13.352;2023-10-08T02:33:08;101668.06;;;17.31;75.02
31044;BME280;17710;52.520;13.352;2023-10-08T02:35:39;101676.19;;;17.47;74.27
31044;BME280;17710;52.520;13.352;2023-10-08T02:38:06;101664.41;;;17.51;74.11
31044;BME280;17710;52.520;13.352;2023-10-08T02:40:32;101655.59;;;17.32;74.19
31044;BME280;17710;52.520;13.352;2023-10-08T02:43:01;101649.28;;;17.33;74.72
31044;BME280;17710;52.520;13.352;2023-10-08T02:45:33;101653.84;;;17.31;74.44
31044;BME280;17710;52.520;13.352;2023-10-08T02:48:06;101648.34;;;16.98;76.46
31044;BME280;17710;52.520;13.352;2023-10-08T02:50:37;101645.34;;;17.23;75.25
31044;BME280;17710;52.520;13.352;2023-10-08T02:53:04;101651.22;;;16.74;75.83
31044;BME280;17710;52.520;13.352;2023-10-08T02:55:36;101660.38;;;16.88;76.37
31044;BME280;17710;52.520;13.352;2023-10-08T02:58:07;101648.91;;;17.04;75.76
31044;BME280;17710;52.520;13.352;2023-10-08T03:00:36;101654.56;;;16.80;76.02
31044;BME280;17710;52.520;13.352;2023-10-08T03:03:07;101657.06;;;17.01;75.89
31044;BME280;17710;52.520;13.352;2023-10-08T03:05:41;101651.56;;;17.23;74.56
31044;BME280;17710;52.520;13.352;2023-10-08T03:08:09;101646.56;;;17.16;74.30
31044;BME280;17710;52.520;13.352;2023-10-08T03:10:37;101659.50;;;17.25;73.92
31044;BME280;17710;52.520;13.352;2023-10-08T03:13:03;101645.28;;;17.24;73.82
31044;BME280;17710;52.520;13.352;2023-10-08T03:15:31;101654.81;;;17.47;72.97
31044;BME280;17710;52.520;13.352;2023-10-08T03:18:04;101664.31;;;17.35;73.37
31044;BME280;17710;52.520;13.352;2023-10-08T03:20:36;101658.41;;;17.46;72.98
31044;BME280;17710;52.520;13.352;2023-10-08T03:23:08;101661.59;;;17.18;74.00
31044;BME280;17710;52.520;13.352;2023-10-08T03:25:50;101669.25;;;17.26;74.04
31044;BME280;17710;52.520;13.352;2023-10-08T03:28:22;101666.00;;;17.19;74.58
31044;BME280;17710;52.520;13.352;2023-10-08T03:30:50;101661.81;;;17.49;72.96
31044;BME280;17710;52.520;13.352;2023-10-08T03:33:17;101678.66;;;17.51;72.42
31044;BME280;17710;52.520;13.352;2023-10-08T03:35:50;101692.69;;;17.38;73.32
31044;BME280;17710;52.520;13.352;2023-10-08T03:38:19;101703.53;;;17.16;73.37
31044;BME280;17710;52.520;13.352;2023-10-08T03:40:54;101696.28;;;17.37;73.16
31044;BME280;17710;52.520;13.352;2023-10-08T03:43:25;101707.97;;;17.34;73.10
31044;BME280;17710;52.520;13.352;2023-10-08T03:46:00;101702.88;;;17.30;73.42
31044;BME280;17710;52.520;13.352;2023-10-08T03:48:31;101724.25;;;17.30;73.57
31044;BME280;17710;52.520;13.352;2023-10-08T03:51:03;101731.63;;;17.25;73.55
31044;BME280;17710;52.520;13.352;2023-10-08T03:53:37;101734.41;;;17.03;73.70
31044;BME280;17710;52.520;13.352;2023-10-08T03:56:24;101739.75;;;17.22;72.98
31044;BME280;17710;52.520;13.352;2023-10-08T03:58:51;101739.75;;;17.22;73.16
31044;BME280;17710;52.520;13.352;2023-10-08T04:01:20;101747.19;;;17.15;72.84
31044;BME280;17710;52.520;13.352;2023-10-08T04:03:48;101750.31;;;17.25;72.11
31044;BME280;17710;52.520;13.352;2023-10-08T04:06:27;101756.94;;;17.35;71.77
31044;BME280;17710;52.520;13.352;2023-10-08T04:09:04;101762.00;;;17.03;72.03
31044;BME280;17710;52.520;13.352;2023-10-08T04:11:49;101742.88;;;17.12;72.89
31044;BME280;17710;52.520;13.352;2023-10-08T04:14:18;101744.69;;;16.93;72.99
31044;BME280;17710;52.520;13.352;2023-10-08T04:16:45;101747.13;;;17.17;72.54
31044;BME280;17710;52.520;13.352;2023-10-08T04:19:15;101757.88;;;17.15;72.28
31044;BME280;17710;52.520;13.352;2023-10-08T04:21:44;101780.91;;;17.18;71.52
31044;BME280;17710;52.520;13.352;2023-10-08T04:24:20;101774.97;;;16.92;72.34
31044;BME280;17710;52.520;13.352;2023-10-08T04:26:53;101786.03;;;17.03;71.81
31044;BME280;17710;52.520;13.352;2023-10-08T04:29:21;101784.44;;;16.99;72.52
31044;BME280;17710;52.520;13.352;2023-10-08T04:31:48;101793.91;;;17.06;71.87
31044;BME280;17710;52.520;13.352;2023-10-08T04:34:26;101812.66;;;17.05;72.06
31044;BME280;17710;52.520;13.352;2023-10-08T04:36:54;101821.91;;;17.17;71.80
31044;BME280;17710;52.520;13.352;2023-10-08T04:39:26;101835.03;;;16.82;73.09
31044;BME280;17710;52.520;13.352;2023-10-08T04:41:57;101819.94;;;16.81;73.25
31044;BME280;17710;52.520;13.352;2023-10-08T04:44:25;101808.69;;;16.74;73.18
31044;BME280;17710;52.520;13.352;2023-10-08T04:46:52;101814.22;;;16.70;73.85
31044;BME280;17710;52.520;13.352;2023-10-08T04:49:19;101824.38;;;16.62;73.46
31044;BME280;17710;52.520;13.352;2023-10-08T04:51:55;101812.94;;;16.58;73.57
31044;BME280;17710;52.520;13.352;2023-10-08T04:54:25;101813.38;;;16.69;73.58
31044;BME280;17710;52.520;13.352;2023-10-08T04:56:55;101810.25;;;16.60;73.29
31044;BME280;17710;52.520;13.352;2023-10-08T04:59:23;101814.53;;;16.42;74.72
31044;BME280;17710;52.520;13.352;2023-10-08T05:01:57;101816.88;;;16.50;74.39
31044;BME280;17710;52.520;13.352;2023-10-08T05:04:38;101828.19;;;16.55;73.95
31044;BME280;17710;52.520;13.352;2023-10-08T05:07:22;101846.88;;;16.55;73.71
31044;BME280;17710;52.520;13.352;2023-10-08T05:10:03;101858.00;;;16.66;73.19
31044;BME280;17710;52.520;13.352;2023-10-08T05:12:55;101859.59;;;16.48;73.54
31044;BME280;17710;52.520;13.352;2023-10-08T05:15:40;101861.94;;;16.35;73.75
31044;BME280;17710;52.520;13.352;2023-10-08T05:18:15;101854.59;;;16.20;74.62
31044;BME280;17710;52.520;13.352;2023-10-08T05:20:49;101856.03;;;16.07;75.44
31044;BME280;17710;52.520;13.352;2023-10-08T05:23:43;101870.13;;;16.09;76.26
31044;BME280;17710;52.520;13.352;2023-10-08T05:26:19;101891.09;;;16.18;75.82
31044;BME280;17710;52.520;13.352;2023-10-08T05:28:56;101894.63;;;16.41;74.75
31044;BME280;17710;52.520;13.352;2023-10-08T05:31:48;101890.69;;;16.49;73.76
31044;BME280;17710;52.520;13.352;2023-10-08T05:34:35;101885.31;;;16.51;73.59
31044;BME280;17710;52.520;13.352;2023-10-08T05:37:08;101900.00;;;16.61;73.15
31044;BME280;17710;52.520;13.352;2023-10-08T05:39:59;101900.19;;;16.34;74.05
31044;BME280;17710;52.520;13.352;2023-10-08T05:42:37;101907.78;;;16.45;73.88
31044;BME280;17710;52.520;13.352;2023-10-08T05:45:11;101922.78;;;16.48;73.95
31044;BME280;17710;52.520;13.352;2023-10-08T05:47:39;101914.59;;;16.30;74.78
31044;BME280;17710;52.520;13.352;2023-10-08T05:50:16;101922.91;;;16.45;74.22
31044;BME280;17710;52.520;13.352;2023-10-08T05:53:04;101912.66;;;16.56;73.98
31044;BME280;17710;52.520;13.352;2023-10-08T05:55:41;101915.78;;;16.67;73.85
31044;BME280;17710;52.520;13.352;2023-10-08T05:58:13;101923.09;;;16.62;73.26
31044;BME280;17710;52.520;13.352;2023-10-08T06:00:50;101928.88;;;16.73;73.29
31044;BME280;17710;52.520;13.352;2023-10-08T06:03:31;101935.41;;;16.66;72.95
31044;BME280;17710;52.520;13.352;2023-10-08T06:05:59;101948.22;;;16.56;73.35
31044;BME280;17710;52.520;13.352;2023-10-08T06:08:47;101971.59;;;16.50;74.42
31044;BME280;17710;52.520;13.352;2023-10-08T06:11:35;101973.03;;;16.58;73.69
31044;BME280;17710;52.520;13.352;2023-10-08T06:14:10;101981.19;;;16.77;73.34
31044;BME280;17710;52.520;13.352;2023-10-08T06:16:40;101993.63;;;16.55;74.41
31044;BME280;17710;52.520;13.352;2023-10-08T06:19:12;102004.53;;;16.72;73.85
31044;BME280;17710;52.520;13.352;2023-10-08T06:21:38;102015.50;;;16.86;71.74
31044;BME280;17710;52.520;13.352;2023-10-08T06:24:05;102027.22;;;17.04;72.10
31044;BME280;17710;52.520;13.352;2023-10-08T06:26:37;102013.47;;;16.93;70.55
31044;BME280;17710;52.520;13.352;2023-10-08T06:29:08;102002.91;;;17.10;69.81
31044;BME280;17710;52.520;13.352;2023-10-08T06:31:44;102015.28;;;17.12;69.41
31044;BME280;17710;52.520;13.352;2023-10-08T06:34:16;102015.41;;;17.09;69.68
31044;BME280;17710;52.520;13.352;2023-10-08T06:36:46;102023.06;;;16.75;69.86
31044;BME280;17710;52.520;13.352;2023-10-08T06:39:12;102029.78;;;16.85;69.65
31044;BME280;17710;52.520;13.352;2023-10-08T06:41:45;102031.84;;;16.79;69.42
31044;BME280;17710;52.520;13.352;2023-10-08T06:44:12;102034.63;;;16.97;69.97
31044;BME280;17710;52.520;13.352;2023-10-08T06:46:40;102033.78;;;17.17;69.96
31044;BME280;17710;52.520;13.352;2023-10-08T06:49:08;102046.53;;;17.10;68.29
31044;BME280;17710;52.520;13.352;2023-10-08T06:51:37;102057.50;;;17.25;68.13
31044;BME280;17710;52.520;13.352;2023-10-08T06:54:04;102066.72;;;17.38;67.24
31044;BME280;17710;52.520;13.352;2023-10-08T06:56:35;102054.41;;;17.34;67.25
31044;BME280;17710;52.520;13.352;2023-10-08T06:59:02;102058.88;;;17.33;67.76
31044;BME280;17710;52.520;13.352;2023-10-08T07:01:30;102070.97;;;17.22;65.97
31044;BME280;17710;52.520;13.352;2023-10-08T07:04:04;102074.22;;;17.08;65.89
31044;BME280;17710;52.520;13.352;2023-10-08T07:06:31;102071.56;;;17.28;65.43
31044;BME280;17710;52.520;13.352;2023-10-08T07:09:00;102078.13;;;17.41;64.74
31044;BME280;17710;52.520;13.352;2023-10-08T07:11:31;102080.00;;;17.39;64.43
31044;BME280;17710;52.520;13.352;2023-10-08T07:14:00;102081.84;;;16.95;64.97
31044;BME280;17710;52.520;13.352;2023-10-08T07:16:28;102086.22;;;17.60;64.15
31044;BME280;17710;52.520;13.352;2023-10-08T07:18:55;102092.03;;;17.71;64.33
31044;BME280;17710;52.520;13.352;2023-10-08T07:21:27;102088.22;;;17.77;62.57
31044;BME280;17710;52.520;13.352;2023-10-08T07:23:55;102098.97;;;17.53;61.50
31044;BME280;17710;52.520;13.352;2023-10-08T07:26:25;102101.25;;;17.64;61.19
31044;BME280;17710;52.520;13.352;2023-10-08T07:29:01;102105.19;;;17.54;60.94
31044;BME280;17710;52.520;13.352;2023-10-08T07:31:31;102117.91;;;18.10;60.01
31044;BME280;17710;52.520;13.352;2023-10-08T07:33:59;102120.22;;;17.78;60.45
31044;BME280;17710;52.520;13.352;2023-10-08T07:36:41;102122.94;;;18.17;59.64
31044;BME280;17710;52.520;13.352;2023-10-08T07:39:08;102113.00;;;18.19;57.45
31044;BME280;17710;52.520;13.352;2023-10-08T07:41:51;102117.88;;;17.91;57.80
31044;BME280;17710;52.520;13.352;2023-10-08T07:44:19;102125.72;;;18.14;57.47
31044;BME280;17710;52.520;13.352;2023-10-08T07:46:48;102124.88;;;18.32;58.25
31044;BME280;17710;52.520;13.352;2023-10-08T07:49:16;102129.75;;;18.24;55.98
31044;BME280;17710;52.520;13.352;2023-10-08T07:51:43;102130.81;;;18.39;56.62
31044;BME280;17710;52.520;13.352;2023-10-08T07:54:17;102138.91;;;18.77;57.18
31044;BME280;17710;52.520;13.352;2023-10-08T07:56:47;102132.53;;;18.60;54.52
31044;BME280;17710;52.520;13.352;2023-10-08T07:59:14;102140.63;;;18.96;54.31
31044;BME280;17710;52.520;13.352;2023-10-08T08:01:42;102141.66;;;18.94;53.10
31044;BME280;17710;52.520;13.352;2023-10-08T08:04:10;102148.88;;;18.73;53.17
31044;BME280;17710;52.520;13.352;2023-10-08T08:06:40;102144.81;;;19.02;52.70
31044;BME280;17710;52.520;13.352;2023-10-08T08:09:07;102151.22;;;18.62;53.06
31044;BME280;17710;52.520;13.352;2023-10-08T08:11:43;102146.84;;;18.59;52.15
31044;BME280;17710;52.520;13.352;2023-10-08T08:14:11;102153.84;;;18.04;52.60
31044;BME280;17710;52.520;13.352;2023-10-08T08:16:37;102154.03;;;18.00;54.30
31044;BME280;17710;52.520;13.352;2023-10-08T08:19:04;102163.22;;;18.52;54.04
31044;BME280;17710;52.520;13.352;2023-10-08T08:21:31;102160.03;;;18.83;52.76
31044;BME280;17710;52.520;13.352;2023-10-08T08:23:58;102156.00;;;19.10;52.95
31044;BME280;17710;52.520;13.352;2023-10-08T08:26:30;102160.31;;;18.95;48.76
31044;BME280;17710;52.520;13.352;2023-10-08T08:29:05;102165.13;;;18.70;49.34
31044;BME280;17710;52.520;13.352;2023-10-08T08:31:36;102175.38;;;18.79;50.95
31044;BME280;17710;52.520;13.352;2023-10-08T08:34:03;102172.25;;;19.07;49.11
31044;BME280;17710;52.520;13.352;2023-10-08T08:36:36;102178.69;;;19.92;46.64
31044;BME280;17710;52.520;13.352;2023-10-08T08:39:04;102183.16;;;20.09;44.22
31044;BME280;17710;52.520;13.352;2023-10-08T08:41:36;102180.50;;;19.92;44.99
31044;BME280;17710;52.520;13.352;2023-10-08T08:44:04;102188.00;;;19.85;45.55
31044;BME280;17710;52.520;13.352;2023-10-08T08:46:33;102187.13;;;19.84;45.18
31044;BME280;17710;52.520;13.352;2023-10-08T08:49:04;102184.13;;;19.90;45.22
31044;BME280;17710;52.520;13.352;2023-10-08T08:51:31;102193.13;;;19.89;45.84
31044;BME280;17710;52.520;13.352;2023-10-08T08:53:59;102193.38;;;19.68;44.79
31044;BME280;17710;52.520;13.352;2023-10-08T08:56:32;102191.09;;;19.95;45.53
31044;BME280;17710;52.520;13.352;2023-10-08T08:58:59;102200.56;;;20.02;42.81
31044;BME280;17710;52.520;13.352;2023-10-08T09:01:28;102205.22;;;19.98;42.62
31044;BME280;17710;52.520;13.352;2023-10-08T09:03:58;102209.00;;;20.11;41.97
31044;BME280;17710;52.520;13.352;2023-10-08T09:06:26;102208.69;;;20.00;40.75
31044;BME280;17710;52.520;13.352;2023-10-08T09:08:54;102206.63;;;19.71;41.59
31044;BME280;17710;52.520;13.352;2023-10-08T09:11:40;102211.78;;;19.75;41.21
31044;BME280;17710;52.520;13.352;2023-10-08T09:14:08;102215.63;;;19.87;40.68
31044;BME280;17710;52.520;13.352;2023-10-08T09:16:35;102215.25;;;19.95;40.22
31044;BME280;17710;52.520;13.352;2023-10-08T09:19:02;102218.94;;;20.09;42.69
31044;BME280;17710;52.520;13.352;2023-10-08T09:21:29;102221.47;;;20.12;39.11
31044;BME280;17710;52.520;13.352;2023-10-08T09:23:56;102224.69;;;19.67;39.25
31044;BME280;17710;52.520;13.352;2023-10-08T09:26:24;102219.09;;;19.89;38.50
31044;BME280;17710;52.520;13.352;2023-10-08T09:28:52;102216.00;;;19.97;40.84
31044;BME280;17710;52.520;13.352;2023-10-08T09:31:22;102227.13;;;19.72;40.03
31044;BME280;17710;52.520;13.352;2023-10-08T09:33:54;102222.50;;;20.27;38.48
31044;BME280;17710;52.520;13.352;2023-10-08T09:36:20;102211.81;;;20.25;38.76
31044;BME280;17710;52.520;13.352;2023-10-08T09:38:58;102217.50;;;20.19;37.19
31044;BME280;17710;52.520;13.352;2023-10-08T09:41:26;102223.09;;;20.32;36.61
31044;BME280;17710;52.520;13.352;2023-10-08T09:43:56;102220.81;;;19.90;37.75
31044;BME280;17710;52.520;13.352;2023-10-08T09:46:29;102219.72;;;20.46;37.83
31044;BME280;17710;52.520;13.352;2023-10-08T09:48:59;102227.84;;;20.44;33.72
31044;BME280;17710;52.520;13.352;2023-10-08T09:51:29;102228.25;;;20.19;34.96
31044;BME280;17710;52.520;13.352;2023-10-08T09:54:05;102229.97;;;20.03;35.80
31044;BME280;17710;52.520;13.352;2023-10-08T09:56:35;102236.94;;;20.07;35.37
31044;BME280;17710;52.520;13.352;2023-10-08T09:59:06;102245.91;;;19.72;34.25
31044;BME280;17710;52.520;13.352;2023-10-08T10:01:35;102252.09;;;19.36;36.40
31044;BME280;17710;52.520;13.352;2023-10-08T10:04:05;102247.75;;;19.34;35.93
31044;BME280;17710;52.520;13.352;2023-10-08T10:06:35;102248.19;;;19.62;37.38
31044;BME280;17710;52.520;13.352;2023-10-08T10:09:02;102243.97;;;19.57;36.05
31044;BME280;17710;52.520;13.352;2023-10-08T10:11:32;102250.56;;;19.49;36.62
31044;BME280;17710;52.520;13.352;2023-10-08T10:14:00;102253.19;;;19.32;37.78
31044;BME280;17710;52.520;13.352;2023-10-08T10:16:28;102253.47;;;19.26;35.89
31044;BME280;17710;52.520;13.352;2023-10-08T10:19:03;102251.13;;;19.56;35.75
31044;BME280;17710;52.520;13.352;2023-10-08T10:21:31;102248.03;;;19.65;36.77
31044;BME280;17710;52.520;13.352;2023-10-08T10:23:58;102253.50;;;19.81;33.72
31044;BME280;17710;52.520;13.352;2023-10-08T10:26:26;102250.97;;;20.12;32.15
31044;BME280;17710;52.520;13.352;2023-10-08T10:29:17;102256.13;;;19.64;33.17
31044;BME280;17710;52.520;13.352;2023-10-08T10:31:47;102258.97;;;19.61;33.12
31044;BME280;17710;52.520;13.352;2023-10-08T10:34:17;102252.09;;;18.80;34.32
31044;BME280;17710;52.520;13.352;2023-10-08T10:36:45;102253.13;;;19.34;35.18
31044;BME280;17710;52.520;13.352;2023-10-08T10:39:15;102262.16;;;19.69;33.07
31044;BME280;17710;52.520;13.352;2023-10-08T10:41:43;102263.28;;;19.82;33.36
31044;BME280;17710;52.520;13.352;2023-10-08T10:44:10;102258.72;;;19.48;34.25
31044;BME280;17710;52.520;13.352;2023-10-08T10:46:40;102257.47;;;18.99;33.80
31044;BME280;17710;52.520;13.352;2023-10-08T10:52:15;102268.06;;;19.21;33.05
31044;BME280;17710;52.520;13.352;2023-10-08T10:54:51;102267.72;;;19.45;32.67
31044;BME280;17710;52.520;13.352;2023-10-08T10:57:24;102274.34;;;19.38;32.68
31044;BME280;17710;52.520;13.352;2023-10-08T10:59:52;102269.28;;;19.87;32.70
31044;BME280;17710;52.520;13.352;2023-10-08T11:02:19;102261.53;;;19.81;32.56
31044;BME280;17710;52.520;13.352;2023-10-08T11:04:47;102263.91;;;20.04;32.76
31044;BME280;17710;52.520;13.352;2023-10-08T11:07:17;102259.84;;;20.14;33.04
31044;BME280;17710;52.520;13.352;2023-10-08T11:09:45;102257.38;;;20.10;32.88
31044;BME280;17710;52.520;13.352;2023-10-08T11:12:14;102260.31;;;20.40;32.21
31044;BME280;17710;52.520;13.352;2023-10-08T11:14:48;102256.50;;;20.44;31.85
31044;BME280;17710;52.520;13.352;2023-10-08T11:18:42;102255.03;;;20.71;31.51
31044;BME280;17710;52.520;13.352;2023-10-08T11:20:43;102246.88;;;20.05;32.95
31044;BME280;17710;52.520;13.352;2023-10-08T11:23:10;102256.50;;;19.92;32.15
31044;BME280;17710;52.520;13.352;2023-10-08T11:25:56;102246.72;;;20.08;32.38
31044;BME280;17710;52.520;13.352;2023-10-08T11:28:27;102243.47;;;20.19;32.20
31044;BME280;17710;52.520;13.352;2023-10-08T11:30:54;102245.09;;;20.40;31.40
31044;BME280;17710;52.520;13.352;2023-10-08T11:33:24;102246.25;;;20.00;31.56
31044;BME280;17710;52.520;13.352;2023-10-08T11:35:58;102248.34;;;19.76;31.57
31044;BME280;17710;52.520;13.352;2023-10-08T11:38:37;102255.72;;;20.07;32.28
31044;BME280;17710;52.520;13.352;2023-10-08T11:41:11;102250.03;;;20.13;32.62
31044;BME280;17710;52.520;13.352;2023-10-08T11:43:47;102257.28;;;19.94;32.91
31044;BME280;17710;52.520;13.352;2023-10-08T11:46:14;102250.75;;;20.00;31.06
31044;BME280;17710;52.520;13.352;2023-10-08T11:48:43;102251.28;;;19.89;31.39
31044;BME280;17710;52.520;13.352;2023-10-08T11:51:13;102247.97;;;20.18;30.89
31044;BME280;17710;52.520;13.352;2023-10-08T11:53:42;102245.69;;;19.94;31.98
31044;BME280;17710;52.520;13.352;2023-10-08T11:56:10;102248.94;;;20.00;31.58
31044;BME280;17710;52.520;13.352;2023-10-08T11:58:39;102245.59;;;20.29;32.67
31044;BME280;17710;52.520;13.352;2023-10-08T12:01:06;102250.94;;;20.64;31.21
31044;BME280;17710;52.520;13.352;2023-10-08T12:03:36;102255.91;;;20.87;30.87
31044;BME280;17710;52.520;13.352;2023-10-08T12:06:04;102255.50;;;20.46;30.31
31044;BME280;17710;52.520;13.352;2023-10-08T12:08:32;102247.91;;;20.37;30.10
31044;BME280;17710;52.520;13.352;2023-10-08T12:11:04;102261.63;;;20.48;31.64
31044;BME280;17710;52.520;13.352;2023-10-08T12:13:37;102259.19;;;20.44;30.56
31044;BME280;17710;52.520;13.352;2023-10-08T12:16:03;102261.34;;;20.70;30.81
31044;BME280;17710;52.520;13.352;2023-10-08T12:18:32;102258.38;;;20.59;30.53
31044;BME280;17710;52.520;13.352;2023-10-08T12:21:04;102256.28;;;20.14;31.62
31044;BME280;17710;52.520;13.352;2023-10-08T12:23:36;102250.63;;;20.70;31.27
31044;BME280;17710;52.520;13.352;2023-10-08T12:26:03;102231.75;;;20.72;29.34
31044;BME280;17710;52.520;13.352;2023-10-08T12:28:33;102233.13;;;20.94;29.74
31044;BME280;17710;52.520;13.352;2023-10-08T12:31:01;102229.41;;;20.81;28.30
31044;BME280;17710;52.520;13.352;2023-10-08T12:33:36;102234.47;;;21.03;28.18
31044;BME280;17710;52.520;13.352;2023-10-08T12:36:03;102240.41;;;20.77;28.27
31044;BME280;17710;52.520;13.352;2023-10-08T12:38:37;102237.66;;;20.45;28.85
31044;BME280;17710;52.520;13.352;2023-10-08T12:41:04;102232.00;;;20.83;28.47
31044;BME280;17710;52.520;13.352;2023-10-08T12:43:37;102229.03;;;20.39;29.02
31044;BME280;17710;52.520;13.352;2023-10-08T12:46:04;102231.34;;;20.62;28.44
31044;BME280;17710;52.520;13.352;2023-10-08T12:48:36;102225.66;;;21.17;29.23
31044;BME280;17710;52.520;13.352;2023-10-08T12:51:03;102223.09;;;21.61;28.70
31044;BME280;17710;52.520;13.352;2023-10-08T12:53:32;102233.13;;;21.73;27.71
31044;BME280;17710;52.520;13.352;2023-10-08T12:56:01;102218.69;;;22.05;26.95
31044;BME280;17710;52.520;13.352;2023-10-08T12:58:47;102215.75;;;22.38;26.98
31044;BME280;17710;52.520;13.352;2023-10-08T13:01:14;102212.75;;;22.29;26.69
31044;BME280;17710;52.520;13.352;2023-10-08T13:03:43;102222.50;;;22.31;27.22